sensor_id;sensor_type;location;lat;lon;timestamp;pressure;altitude;pressure_sealevel;temperature;humidity
41706;BME280;27385;51.096;17.190;2023-04-24T00:00:24;99264.27;;;12.83;75.43
41706;BME280;27385;51.096;17.190;2023-04-24T00:03:14;99259.64;;;12.80;75.24
41706;BME280;27385;51.096;17.190;2023-04-24T00:05:45;99259.19;;;12.80;75.28
41706;BME280;27385;51.096;17.190;2023-04-24T00:08:17;99256.19;;;12.80;75.45
41706;BME280;27385;51.096;17.190;2023-04-24T00:10:48;99253.90;;;12.79;75.50
41706;BME280;27385;51.096;17.190;2023-04-24T00:13:19;99253.69;;;12.79;75.78
41706;BME280;27385;51.096;17.190;2023-04-24T00:15:50;99245.71;;;12.78;75.83
41706;BME280;27385;51.096;17.190;2023-04-24T00:18:21;99247.59;;;12.78;76.02
41706;BME280;27385;51.096;17.190;2023-04-24T00:20:52;99245.20;;;12.77;76.15
41706;BME280;27385;51.096;17.190;2023-04-24T00:23:23;99242.61;;;12.76;76.20
41706;BME280;27385;51.096;17.190;2023-04-24T00:25:54;99239.45;;;12.76;76.16
41706;BME280;27385;51.096;17.190;2023-04-24T00:28:24;99237.11;;;12.75;76.53
41706;BME280;27385;51.096;17.190;2023-04-24T00:30:55;99235.60;;;12.74;76.44
41706;BME280;27385;51.096;17.190;2023-04-24T00:33:26;99230.52;;;12.72;76.89
41706;BME280;27385;51.096;17.190;2023-04-24T00:35:57;99226.40;;;12.71;76.88
41706;BME280;27385;51.096;17.190;2023-04-24T00:38:28;99223.45;;;12.70;77.02
41706;BME280;27385;51.096;17.190;2023-04-24T00:40:59;99223.71;;;12.70;77.29
41706;BME280;27385;51.096;17.190;2023-04-24T00:43:30;99225.33;;;12.69;77.12
41706;BME280;27385;51.096;17.190;2023-04-24T00:46:01;99226.25;;;12.67;77.53
41706;BME280;27385;51.096;17.190;2023-04-24T00:48:32;99217.31;;;12.65;77.42
41706;BME280;27385;51.096;17.190;2023-04-24T00:51:04;99213.69;;;12.66;77.04
41706;BME280;27385;51.096;17.190;2023-04-24T00:53:35;99212.67;;;12.67;77.39
41706;BME280;27385;51.096;17.190;2023-04-24T00:56:06;99212.36;;;12.68;77.53
41706;BME280;27385;51.096;17.190;2023-04-24T00:58:37;99211.70;;;12.70;77.81
41706;BME280;27385;51.096;17.190;2023-04-24T01:01:09;99212.35;;;12.70;78.01
41706;BME280;27385;51.096;17.190;2023-04-24T01:03:41;99211.48;;;12.71;78.36
41706;BME280;27385;51.096;17.190;2023-04-24T01:06:12;99210.25;;;12.73;78.85
41706;BME280;27385;51.096;17.190;2023-04-24T01:08:43;99207.10;;;12.72;79.31
41706;BME280;27385;51.096;17.190;2023-04-24T01:11:16;99205.73;;;12.71;79.10
41706;BME280;27385;51.096;17.190;2023-04-24T01:13:48;99203.48;;;12.71;79.25
41706;BME280;27385;51.096;17.190;2023-04-24T01:16:19;99199.08;;;12.70;79.52
41706;BME280;27385;51.096;17.190;2023-04-24T01:18:50;99201.77;;;12.68;79.77
41706;BME280;27385;51.096;17.190;2023-04-24T01:21:22;99202.34;;;12.66;79.56
41706;BME280;27385;51.096;17.190;2023-04-24T01:23:54;99199.38;;;12.66;79.56
41706;BME280;27385;51.096;17.190;2023-04-24T01:26:25;99200.77;;;12.66;79.94
41706;BME280;27385;51.096;17.190;2023-04-24T01:28:57;99201.08;;;12.65;79.84
41706;BME280;27385;51.096;17.190;2023-04-24T01:31:28;99200.56;;;12.65;79.99
41706;BME280;27385;51.096;17.190;2023-04-24T01:33:59;99198.89;;;12.64;79.98
41706;BME280;27385;51.096;17.190;2023-04-24T01:36:30;99198.42;;;12.64;80.27
41706;BME280;27385;51.096;17.190;2023-04-24T01:39:02;99197.22;;;12.62;80.36
41706;BME280;27385;51.096;17.190;2023-04-24T01:41:33;99193.00;;;12.61;80.35
41706;BME280;27385;51.096;17.190;2023-04-24T01:44:04;99189.14;;;12.60;80.68
41706;BME280;27385;51.096;17.190;2023-04-24T01:46:35;99187.42;;;12.60;80.31
41706;BME280;27385;51.096;17.190;2023-04-24T01:49:06;99186.26;;;12.59;80.52
41706;BME280;27385;51.096;17.190;2023-04-24T01:51:37;99185.18;;;12.60;80.58
41706;BME280;27385;51.096;17.190;2023-04-24T01:54:08;99186.90;;;12.60;80.61
41706;BME280;27385;51.096;17.190;2023-04-24T01:56:41;99184.70;;;12.61;80.87
41706;BME280;27385;51.096;17.190;2023-04-24T01:59:13;99186.83;;;12.62;81.00
41706;BME280;27385;51.096;17.190;2023-04-24T02:01:46;99186.02;;;12.62;80.90
41706;BME280;27385;51.096;17.190;2023-04-24T02:04:16;99182.46;;;12.62;81.02
41706;BME280;27385;51.096;17.190;2023-04-24T02:06:47;99183.07;;;12.62;80.99
41706;BME280;27385;51.096;17.190;2023-04-24T02:09:19;99176.92;;;12.61;80.89
41706;BME280;27385;51.096;17.190;2023-04-24T02:11:50;99175.02;;;12.61;81.04
41706;BME280;27385;51.096;17.190;2023-04-24T02:14:20;99171.83;;;12.62;81.17
41706;BME280;27385;51.096;17.190;2023-04-24T02:16:51;99170.80;;;12.63;81.14
41706;BME280;27385;51.096;17.190;2023-04-24T02:19:22;99167.48;;;12.63;81.25
41706;BME280;27385;51.096;17.190;2023-04-24T02:21:53;99171.05;;;12.62;81.54
41706;BME280;27385;51.096;17.190;2023-04-24T02:24:24;99171.48;;;12.61;81.47
41706;BME280;27385;51.096;17.190;2023-04-24T02:26:55;99169.70;;;12.60;81.70
41706;BME280;27385;51.096;17.190;2023-04-24T02:29:27;99169.28;;;12.61;81.52
41706;BME280;27385;51.096;17.190;2023-04-24T02:31:58;99164.04;;;12.61;81.50
41706;BME280;27385;51.096;17.190;2023-04-24T02:34:29;99166.79;;;12.61;81.67
41706;BME280;27385;51.096;17.190;2023-04-24T02:37:00;99162.77;;;12.60;81.70
41706;BME280;27385;51.096;17.190;2023-04-24T02:39:31;99155.14;;;12.60;81.84
41706;BME280;27385;51.096;17.190;2023-04-24T02:42:02;99153.80;;;12.62;81.63
41706;BME280;27385;51.096;17.190;2023-04-24T02:44:33;99145.17;;;12.64;81.72
41706;BME280;27385;51.096;17.190;2023-04-24T02:47:04;99141.41;;;12.65;81.55
41706;BME280;27385;51.096;17.190;2023-04-24T02:49:34;99142.77;;;12.66;81.54
41706;BME280;27385;51.096;17.190;2023-04-24T02:52:05;99134.47;;;12.67;81.61
41706;BME280;27385;51.096;17.190;2023-04-24T02:54:37;99133.65;;;12.68;81.53
41706;BME280;27385;51.096;17.190;2023-04-24T02:57:08;99129.89;;;12.68;81.52
41706;BME280;27385;51.096;17.190;2023-04-24T02:59:39;99129.73;;;12.67;81.71
41706;BME280;27385;51.096;17.190;2023-04-24T03:02:09;99126.70;;;12.65;81.69
41706;BME280;27385;51.096;17.190;2023-04-24T03:04:40;99127.05;;;12.64;82.02
41706;BME280;27385;51.096;17.190;2023-04-24T03:07:12;99128.13;;;12.64;82.19
41706;BME280;27385;51.096;17.190;2023-04-24T03:09:43;99130.48;;;12.64;82.24
41706;BME280;27385;51.096;17.190;2023-04-24T03:12:14;99127.79;;;12.62;82.10
41706;BME280;27385;51.096;17.190;2023-04-24T03:14:47;99125.54;;;12.63;81.83
41706;BME280;27385;51.096;17.190;2023-04-24T03:17:17;99123.66;;;12.64;81.85
41706;BME280;27385;51.096;17.190;2023-04-24T03:19:48;99124.35;;;12.65;81.82
41706;BME280;27385;51.096;17.190;2023-04-24T03:22:19;99125.27;;;12.66;81.78
41706;BME280;27385;51.096;17.190;2023-04-24T03:24:50;99126.69;;;12.66;81.90
41706;BME280;27385;51.096;17.190;2023-04-24T03:27:21;99124.30;;;12.65;81.94
41706;BME280;27385;51.096;17.190;2023-04-24T03:29:53;99122.27;;;12.64;81.87
41706;BME280;27385;51.096;17.190;2023-04-24T03:32:25;99122.64;;;12.63;81.98
41706;BME280;27385;51.096;17.190;2023-04-24T03:34:55;99126.81;;;12.64;82.00
41706;BME280;27385;51.096;17.190;2023-04-24T03:37:26;99123.84;;;12.65;82.13
41706;BME280;27385;51.096;17.190;2023-04-24T03:39:57;99120.39;;;12.64;82.11
41706;BME280;27385;51.096;17.190;2023-04-24T03:42:28;99124.61;;;12.64;82.27
41706;BME280;27385;51.096;17.190;2023-04-24T03:44:59;99128.73;;;12.66;82.32
41706;BME280;27385;51.096;17.190;2023-04-24T03:47:30;99128.77;;;12.66;82.38
41706;BME280;27385;51.096;17.190;2023-04-24T03:50:01;99131.23;;;12.65;82.32
41706;BME280;27385;51.096;17.190;2023-04-24T03:52:31;99132.62;;;12.64;82.59
41706;BME280;27385;51.096;17.190;2023-04-24T03:55:03;99141.58;;;12.63;82.57
41706;BME280;27385;51.096;17.190;2023-04-24T03:57:33;99150.35;;;12.61;82.62
41706;BME280;27385;51.096;17.190;2023-04-24T04:00:06;99156.40;;;12.61;82.67
41706;BME280;27385;51.096;17.190;2023-04-24T04:02:38;99160.59;;;12.60;82.56
41706;BME280;27385;51.096;17.190;2023-04-24T04:05:09;99161.88;;;12.59;82.38
41706;BME280;27385;51.096;17.190;2023-04-24T04:07:40;99164.09;;;12.60;82.70
41706;BME280;27385;51.096;17.190;2023-04-24T04:10:11;99159.83;;;12.60;82.42
41706;BME280;27385;51.096;17.190;2023-04-24T04:12:42;99159.69;;;12.60;82.68
41706;BME280;27385;51.096;17.190;2023-04-24T04:15:13;99155.61;;;12.60;82.37
41706;BME280;27385;51.096;17.190;2023-04-24T04:17:44;99152.56;;;12.59;82.45
41706;BME280;27385;51.096;17.190;2023-04-24T04:20:15;99152.62;;;12.56;82.48
41706;BME280;27385;51.096;17.190;2023-04-24T04:22:46;99149.34;;;12.53;82.70
41706;BME280;27385;51.096;17.190;2023-04-24T04:25:17;99149.45;;;12.50;82.68
41706;BME280;27385;51.096;17.190;2023-04-24T04:27:49;99151.38;;;12.50;82.71
41706;BME280;27385;51.096;17.190;2023-04-24T04:30:20;99147.58;;;12.50;82.71
41706;BME280;27385;51.096;17.190;2023-04-24T04:32:52;99142.16;;;12.50;82.84
41706;BME280;27385;51.096;17.190;2023-04-24T04:35:23;99140.84;;;12.51;82.49
41706;BME280;27385;51.096;17.190;2023-04-24T04:37:55;99142.08;;;12.51;82.71
41706;BME280;27385;51.096;17.190;2023-04-24T04:40:28;99143.59;;;12.51;82.79
41706;BME280;27385;51.096;17.190;2023-04-24T04:42:59;99140.39;;;12.49;82.64
41706;BME280;27385;51.096;17.190;2023-04-24T04:45:30;99139.93;;;12.49;82.62
41706;BME280;27385;51.096;17.190;2023-04-24T04:48:02;99141.92;;;12.49;82.70
41706;BME280;27385;51.096;17.190;2023-04-24T04:50:33;99147.25;;;12.50;82.71
41706;BME280;27385;51.096;17.190;2023-04-24T04:53:03;99153.06;;;12.51;82.81
41706;BME280;27385;51.096;17.190;2023-04-24T04:55:35;99150.87;;;12.52;82.90
41706;BME280;27385;51.096;17.190;2023-04-24T04:58:06;99148.31;;;12.53;82.74
41706;BME280;27385;51.096;17.190;2023-04-24T05:00:37;99151.20;;;12.55;82.85
41706;BME280;27385;51.096;17.190;2023-04-24T05:03:08;99150.54;;;12.56;82.54
41706;BME280;27385;51.096;17.190;2023-04-24T05:05:39;99154.35;;;12.57;82.43
41706;BME280;27385;51.096;17.190;2023-04-24T05:08:11;99150.52;;;12.58;82.64
41706;BME280;27385;51.096;17.190;2023-04-24T05:10:42;99149.80;;;12.59;82.62
41706;BME280;27385;51.096;17.190;2023-04-24T05:13:13;99151.28;;;12.59;82.69
41706;BME280;27385;51.096;17.190;2023-04-24T05:15:44;99155.39;;;12.60;82.79
41706;BME280;27385;51.096;17.190;2023-04-24T05:18:15;99147.09;;;12.62;82.68
41706;BME280;27385;51.096;17.190;2023-04-24T05:20:46;99145.73;;;12.65;82.75
41706;BME280;27385;51.096;17.190;2023-04-24T05:23:17;99142.86;;;12.68;82.86
41706;BME280;27385;51.096;17.190;2023-04-24T05:25:48;99144.88;;;12.72;82.72
41706;BME280;27385;51.096;17.190;2023-04-24T05:28:19;99142.88;;;12.75;82.69
41706;BME280;27385;51.096;17.190;2023-04-24T05:30:50;99145.39;;;12.78;82.86
41706;BME280;27385;51.096;17.190;2023-04-24T05:33:21;99142.30;;;12.82;83.37
41706;BME280;27385;51.096;17.190;2023-04-24T05:35:52;99144.52;;;12.84;83.39
41706;BME280;27385;51.096;17.190;2023-04-24T05:38:23;99149.70;;;12.87;83.43
41706;BME280;27385;51.096;17.190;2023-04-24T05:40:54;99146.55;;;12.92;83.52
41706;BME280;27385;51.096;17.190;2023-04-24T05:43:25;99146.36;;;12.97;83.44
41706;BME280;27385;51.096;17.190;2023-04-24T05:45:55;99146.94;;;13.03;83.28
41706;BME280;27385;51.096;17.190;2023-04-24T05:48:26;99149.09;;;13.10;83.38
41706;BME280;27385;51.096;17.190;2023-04-24T05:50:57;99151.59;;;13.15;83.24
41706;BME280;27385;51.096;17.190;2023-04-24T05:53:28;99149.86;;;13.20;82.87
41706;BME280;27385;51.096;17.190;2023-04-24T05:55:59;99154.35;;;13.24;82.73
41706;BME280;27385;51.096;17.190;2023-04-24T05:58:30;99153.75;;;13.29;82.62
41706;BME280;27385;51.096;17.190;2023-04-24T06:01:01;99157.37;;;13.35;82.43
41706;BME280;27385;51.096;17.190;2023-04-24T06:03:32;99156.19;;;13.41;82.23
41706;BME280;27385;51.096;17.190;2023-04-24T06:06:04;99159.21;;;13.49;81.96
41706;BME280;27385;51.096;17.190;2023-04-24T06:08:35;99160.09;;;13.58;81.47
41706;BME280;27385;51.096;17.190;2023-04-24T06:11:06;99157.36;;;13.66;81.07
41706;BME280;27385;51.096;17.190;2023-04-24T06:13:37;99158.55;;;13.74;80.69
41706;BME280;27385;51.096;17.190;2023-04-24T06:16:08;99162.63;;;13.83;80.51
41706;BME280;27385;51.096;17.190;2023-04-24T06:18:39;99163.92;;;13.91;80.13
41706;BME280;27385;51.096;17.190;2023-04-24T06:21:10;99160.81;;;13.98;79.86
41706;BME280;27385;51.096;17.190;2023-04-24T06:23:41;99163.63;;;14.06;79.70
41706;BME280;27385;51.096;17.190;2023-04-24T06:26:12;99160.90;;;14.12;79.49
41706;BME280;27385;51.096;17.190;2023-04-24T06:28:42;99160.38;;;14.18;78.98
41706;BME280;27385;51.096;17.190;2023-04-24T06:31:13;99161.95;;;14.23;78.41
41706;BME280;27385;51.096;17.190;2023-04-24T06:33:44;99161.34;;;14.27;78.29
41706;BME280;27385;51.096;17.190;2023-04-24T06:36:15;99161.81;;;14.30;77.79
41706;BME280;27385;51.096;17.190;2023-04-24T06:38:46;99166.27;;;14.33;77.35
41706;BME280;27385;51.096;17.190;2023-04-24T06:41:17;99160.98;;;14.35;76.95
41706;BME280;27385;51.096;17.190;2023-04-24T06:43:48;99161.11;;;14.37;77.09
41706;BME280;27385;51.096;17.190;2023-04-24T06:46:18;99158.41;;;14.41;76.68
41706;BME280;27385;51.096;17.190;2023-04-24T06:48:51;99159.14;;;14.46;76.35
41706;BME280;27385;51.096;17.190;2023-04-24T06:51:26;99155.80;;;14.51;76.25
41706;BME280;27385;51.096;17.190;2023-04-24T06:53:57;99159.32;;;14.56;76.15
41706;BME280;27385;51.096;17.190;2023-04-24T06:56:28;99156.56;;;14.59;75.79
41706;BME280;27385;51.096;17.190;2023-04-24T06:58:59;99158.30;;;14.63;75.59
41706;BME280;27385;51.096;17.190;2023-04-24T07:01:30;99160.05;;;14.66;75.67
41706;BME280;27385;51.096;17.190;2023-04-24T07:04:01;99154.58;;;14.69;75.64
41706;BME280;27385;51.096;17.190;2023-04-24T07:06:31;99153.91;;;14.73;75.05
41706;BME280;27385;51.096;17.190;2023-04-24T07:09:02;99153.63;;;14.77;74.84
41706;BME280;27385;51.096;17.190;2023-04-24T07:11:33;99153.42;;;14.81;74.74
41706;BME280;27385;51.096;17.190;2023-04-24T07:14:04;99155.40;;;14.85;74.87
41706;BME280;27385;51.096;17.190;2023-04-24T07:16:35;99159.55;;;14.88;74.52
41706;BME280;27385;51.096;17.190;2023-04-24T07:19:06;99157.23;;;14.92;74.60
41706;BME280;27385;51.096;17.190;2023-04-24T07:21:37;99158.55;;;14.96;74.27
41706;BME280;27385;51.096;17.190;2023-04-24T07:24:08;99155.46;;;15.01;74.42
41706;BME280;27385;51.096;17.190;2023-04-24T07:26:40;99160.40;;;15.08;74.14
41706;BME280;27385;51.096;17.190;2023-04-24T07:29:12;99157.40;;;15.16;73.90
41706;BME280;27385;51.096;17.190;2023-04-24T07:31:42;99155.45;;;15.26;74.39
41706;BME280;27385;51.096;17.190;2023-04-24T07:34:13;99160.40;;;15.35;73.90
41706;BME280;27385;51.096;17.190;2023-04-24T07:36:44;99159.61;;;15.44;73.35
41706;BME280;27385;51.096;17.190;2023-04-24T07:39:17;99157.13;;;15.55;72.40
41706;BME280;27385;51.096;17.190;2023-04-24T07:41:48;99156.77;;;15.67;72.04
41706;BME280;27385;51.096;17.190;2023-04-24T07:44:18;99156.62;;;15.78;71.06
41706;BME280;27385;51.096;17.190;2023-04-24T07:46:49;99160.89;;;15.88;71.03
41706;BME280;27385;51.096;17.190;2023-04-24T07:49:20;99162.13;;;15.97;71.17
41706;BME280;27385;51.096;17.190;2023-04-24T07:51:51;99166.55;;;16.04;71.20
41706;BME280;27385;51.096;17.190;2023-04-24T07:54:22;99161.52;;;16.10;70.64
41706;BME280;27385;51.096;17.190;2023-04-24T07:56:53;99164.57;;;16.13;70.06
41706;BME280;27385;51.096;17.190;2023-04-24T07:59:25;99164.42;;;16.13;69.04
41706;BME280;27385;51.096;17.190;2023-04-24T08:01:55;99161.60;;;16.13;68.35
41706;BME280;27385;51.096;17.190;2023-04-24T08:04:26;99165.30;;;16.12;67.73
41706;BME280;27385;51.096;17.190;2023-04-24T08:06:57;99166.50;;;16.11;67.74
41706;BME280;27385;51.096;17.190;2023-04-24T08:09:28;99166.31;;;16.11;67.80
41706;BME280;27385;51.096;17.190;2023-04-24T08:11:59;99173.78;;;16.08;67.58
41706;BME280;27385;51.096;17.190;2023-04-24T08:14:31;99173.39;;;16.05;67.51
41706;BME280;27385;51.096;17.190;2023-04-24T08:17:01;99176.81;;;16.03;67.83
41706;BME280;27385;51.096;17.190;2023-04-24T08:19:32;99178.09;;;16.00;68.19
41706;BME280;27385;51.096;17.190;2023-04-24T08:22:04;99179.61;;;15.96;68.04
41706;BME280;27385;51.096;17.190;2023-04-24T08:24:34;99180.38;;;15.90;67.85
41706;BME280;27385;51.096;17.190;2023-04-24T08:27:05;99178.94;;;15.83;68.10
41706;BME280;27385;51.096;17.190;2023-04-24T08:29:37;99177.36;;;15.75;69.38
41706;BME280;27385;51.096;17.190;2023-04-24T08:32:08;99173.73;;;15.64;70.07
41706;BME280;27385;51.096;17.190;2023-04-24T08:34:39;99172.22;;;15.51;70.45
41706;BME280;27385;51.096;17.190;2023-04-24T08:37:10;99179.40;;;15.43;71.27
41706;BME280;27385;51.096;17.190;2023-04-24T08:39:42;99176.13;;;15.39;72.08
41706;BME280;27385;51.096;17.190;2023-04-24T08:42:14;99173.88;;;15.39;72.76
41706;BME280;27385;51.096;17.190;2023-04-24T08:44:46;99172.27;;;15.45;73.49
41706;BME280;27385;51.096;17.190;2023-04-24T08:47:17;99178.57;;;15.54;73.92
41706;BME280;27385;51.096;17.190;2023-04-24T08:49:49;99173.63;;;15.64;73.61
41706;BME280;27385;51.096;17.190;2023-04-24T08:52:20;99178.77;;;15.73;73.87
41706;BME280;27385;51.096;17.190;2023-04-24T08:54:52;99177.45;;;15.84;74.19
41706;BME280;27385;51.096;17.190;2023-04-24T08:57:24;99181.02;;;15.94;74.28
41706;BME280;27385;51.096;17.190;2023-04-24T08:59:55;99185.87;;;16.05;74.28
41706;BME280;27385;51.096;17.190;2023-04-24T09:02:27;99182.22;;;16.14;73.53
41706;BME280;27385;51.096;17.190;2023-04-24T09:04:59;99174.69;;;16.18;72.89
41706;BME280;27385;51.096;17.190;2023-04-24T09:07:31;99176.70;;;16.24;73.28
41706;BME280;27385;51.096;17.190;2023-04-24T09:10:05;99177.65;;;16.29;73.00
41706;BME280;27385;51.096;17.190;2023-04-24T09:12:37;99178.73;;;16.34;72.70
41706;BME280;27385;51.096;17.190;2023-04-24T09:15:10;99178.98;;;16.39;72.96
41706;BME280;27385;51.096;17.190;2023-04-24T09:17:41;99185.72;;;16.48;73.30
41706;BME280;27385;51.096;17.190;2023-04-24T09:20:14;99184.26;;;16.59;73.49
41706;BME280;27385;51.096;17.190;2023-04-24T09:22:47;99183.50;;;16.70;72.66
41706;BME280;27385;51.096;17.190;2023-04-24T09:25:18;99182.39;;;16.78;72.06
41706;BME280;27385;51.096;17.190;2023-04-24T09:27:50;99178.19;;;16.86;71.94
41706;BME280;27385;51.096;17.190;2023-04-24T09:30:24;99183.20;;;16.93;71.55
41706;BME280;27385;51.096;17.190;2023-04-24T09:33:12;99178.02;;;16.98;71.30
41706;BME280;27385;51.096;17.190;2023-04-24T09:35:48;99175.78;;;17.04;70.85
41706;BME280;27385;51.096;17.190;2023-04-24T09:38:19;99170.48;;;17.11;70.40
41706;BME280;27385;51.096;17.190;2023-04-24T09:41:01;99170.20;;;17.18;69.24
41706;BME280;27385;51.096;17.190;2023-04-24T09:43:33;99168.40;;;17.20;68.93
41706;BME280;27385;51.096;17.190;2023-04-24T09:46:07;99167.27;;;17.21;69.01
41706;BME280;27385;51.096;17.190;2023-04-24T09:48:39;99165.79;;;17.20;68.70
41706;BME280;27385;51.096;17.190;2023-04-24T09:51:10;99159.25;;;17.21;69.10
41706;BME280;27385;51.096;17.190;2023-04-24T09:53:48;99153.02;;;17.27;69.12
41706;BME280;27385;51.096;17.190;2023-04-24T09:56:23;99148.86;;;17.33;69.02
41706;BME280;27385;51.096;17.190;2023-04-24T09:59:14;99148.69;;;17.38;69.00
41706;BME280;27385;51.096;17.190;2023-04-24T10:01:46;99144.71;;;17.42;68.35
41706;BME280;27385;51.096;17.190;2023-04-24T10:04:20;99141.98;;;17.44;67.99
41706;BME280;27385;51.096;17.190;2023-04-24T10:06:54;99142.60;;;17.46;67.89
41706;BME280;27385;51.096;17.190;2023-04-24T10:09:27;99138.73;;;17.50;67.93
41706;BME280;27385;51.096;17.190;2023-04-24T10:11:58;99145.38;;;17.55;67.77
41706;BME280;27385;51.096;17.190;2023-04-24T10:14:31;99145.55;;;17.60;67.46
41706;BME280;27385;51.096;17.190;2023-04-24T10:17:03;99146.48;;;17.62;67.40
41706;BME280;27385;51.096;17.190;2023-04-24T10:19:35;99140.07;;;17.65;67.21
41706;BME280;27385;51.096;17.190;2023-04-24T10:22:08;99137.64;;;17.68;66.94
41706;BME280;27385;51.096;17.190;2023-04-24T10:24:40;99139.61;;;17.71;66.70
41706;BME280;27385;51.096;17.190;2023-04-24T10:27:11;99146.08;;;17.69;65.97
41706;BME280;27385;51.096;17.190;2023-04-24T10:29:44;99144.25;;;17.72;66.40
41706;BME280;27385;51.096;17.190;2023-04-24T10:32:16;99139.58;;;17.79;66.25
41706;BME280;27385;51.096;17.190;2023-04-24T10:34:47;99145.23;;;17.88;66.47
41706;BME280;27385;51.096;17.190;2023-04-24T10:37:18;99150.13;;;17.96;65.85
41706;BME280;27385;51.096;17.190;2023-04-24T10:39:51;99148.22;;;18.01;65.43
41706;BME280;27385;51.096;17.190;2023-04-24T10:42:24;99150.16;;;18.05;65.21
41706;BME280;27385;51.096;17.190;2023-04-24T10:44:57;99150.27;;;18.10;65.62
41706;BME280;27385;51.096;17.190;2023-04-24T10:47:41;99148.08;;;18.18;65.46
41706;BME280;27385;51.096;17.190;2023-04-24T10:50:12;99151.55;;;18.26;65.18
41706;BME280;27385;51.096;17.190;2023-04-24T10:52:47;99150.20;;;18.28;64.75
41706;BME280;27385;51.096;17.190;2023-04-24T10:55:40;99149.23;;;18.30;64.82
41706;BME280;27385;51.096;17.190;2023-04-24T10:58:12;99154.25;;;18.30;64.70
41706;BME280;27385;51.096;17.190;2023-04-24T11:00:47;99151.67;;;18.28;63.86
41706;BME280;27385;51.096;17.190;2023-04-24T11:03:27;99149.48;;;18.22;64.20
41706;BME280;27385;51.096;17.190;2023-04-24T11:06:01;99148.95;;;18.18;64.33
41706;BME280;27385;51.096;17.190;2023-04-24T11:08:39;99151.50;;;18.12;63.68
41706;BME280;27385;51.096;17.190;2023-04-24T11:11:15;99151.36;;;18.08;63.60
41706;BME280;27385;51.096;17.190;2023-04-24T11:14:08;99153.75;;;18.07;63.69
41706;BME280;27385;51.096;17.190;2023-04-24T11:16:43;99154.66;;;18.06;63.85
41706;BME280;27385;51.096;17.190;2023-04-24T11:19:23;99149.40;;;18.08;63.90
41706;BME280;27385;51.096;17.190;2023-04-24T11:22:00;99146.64;;;18.22;64.04
41706;BME280;27385;51.096;17.190;2023-04-24T11:24:37;99141.23;;;18.40;63.77
41706;BME280;27385;51.096;17.190;2023-04-24T11:27:15;99141.02;;;18.49;62.69
41706;BME280;27385;51.096;17.190;2023-04-24T11:29:48;99142.83;;;18.49;62.06
41706;BME280;27385;51.096;17.190;2023-04-24T11:32:25;99144.60;;;18.53;62.49
41706;BME280;27385;51.096;17.190;2023-04-24T11:34:58;99144.67;;;18.59;61.71
41706;BME280;27385;51.096;17.190;2023-04-24T11:37:34;99144.86;;;18.65;61.42
41706;BME280;27385;51.096;17.190;2023-04-24T11:40:07;99143.30;;;18.69;61.02
41706;BME280;27385;51.096;17.190;2023-04-24T11:42:40;99142.50;;;18.69;60.41
41706;BME280;27385;51.096;17.190;2023-04-24T11:45:13;99146.08;;;18.67;60.41
41706;BME280;27385;51.096;17.190;2023-04-24T11:47:45;99140.45;;;18.67;60.12
41706;BME280;27385;51.096;17.190;2023-04-24T11:50:19;99140.60;;;18.64;59.95
41706;BME280;27385;51.096;17.190;2023-04-24T11:52:51;99144.29;;;18.58;59.83
41706;BME280;27385;51.096;17.190;2023-04-24T11:55:27;99145.58;;;18.51;59.79
41706;BME280;27385;51.096;17.190;2023-04-24T11:57:59;99143.23;;;18.42;60.14
41706;BME280;27385;51.096;17.190;2023-04-24T12:00:32;99148.74;;;18.39;60.57
41706;BME280;27385;51.096;17.190;2023-04-24T12:03:08;99147.36;;;18.34;60.23
41706;BME280;27385;51.096;17.190;2023-04-24T12:05:39;99146.04;;;18.24;60.06
41706;BME280;27385;51.096;17.190;2023-04-24T12:08:10;99143.83;;;18.18;60.10
41706;BME280;27385;51.096;17.190;2023-04-24T12:10:41;99144.73;;;18.11;60.26
41706;BME280;27385;51.096;17.190;2023-04-24T12:13:12;99139.73;;;18.03;59.97
41706;BME280;27385;51.096;17.190;2023-04-24T12:15:43;99142.09;;;18.02;60.43
41706;BME280;27385;51.096;17.190;2023-04-24T12:18:16;99139.03;;;17.99;60.39
41706;BME280;27385;51.096;17.190;2023-04-24T12:20:47;99137.23;;;17.95;60.52
41706;BME280;27385;51.096;17.190;2023-04-24T12:23:28;99135.91;;;17.93;60.75
41706;BME280;27385;51.096;17.190;2023-04-24T12:26:11;99137.20;;;17.88;60.53
41706;BME280;27385;51.096;17.190;2023-04-24T12:28:42;99139.05;;;17.82;60.79
41706;BME280;27385;51.096;17.190;2023-04-24T12:31:13;99137.34;;;17.81;60.95
41706;BME280;27385;51.096;17.190;2023-04-24T12:33:44;99133.70;;;17.81;61.37
41706;BME280;27385;51.096;17.190;2023-04-24T12:36:15;99129.46;;;17.79;61.17
41706;BME280;27385;51.096;17.190;2023-04-24T12:38:46;99131.34;;;17.77;61.14
41706;BME280;27385;51.096;17.190;2023-04-24T12:41:23;99132.48;;;17.73;60.84
41706;BME280;27385;51.096;17.190;2023-04-24T12:43:54;99127.95;;;17.67;60.94
41706;BME280;27385;51.096;17.190;2023-04-24T12:46:25;99125.11;;;17.63;61.05
41706;BME280;27385;51.096;17.190;2023-04-24T12:48:56;99120.05;;;17.54;60.93
41706;BME280;27385;51.096;17.190;2023-04-24T12:51:28;99122.80;;;17.48;61.27
41706;BME280;27385;51.096;17.190;2023-04-24T12:53:59;99122.57;;;17.43;61.22
41706;BME280;27385;51.096;17.190;2023-04-24T12:56:30;99120.23;;;17.37;61.45
41706;BME280;27385;51.096;17.190;2023-04-24T12:59:01;99118.02;;;17.33;61.45
41706;BME280;27385;51.096;17.190;2023-04-24T13:01:32;99116.08;;;17.29;61.76
41706;BME280;27385;51.096;17.190;2023-04-24T13:04:04;99115.86;;;17.22;61.85
41706;BME280;27385;51.096;17.190;2023-04-24T13:06:35;99108.98;;;17.17;61.96
41706;BME280;27385;51.096;17.190;2023-04-24T13:09:05;99109.84;;;17.13;61.88
41706;BME280;27385;51.096;17.190;2023-04-24T13:11:37;99108.27;;;17.10;62.07
41706;BME280;27385;51.096;17.190;2023-04-24T13:14:07;99105.10;;;17.07;62.52